Terminal Aerodrome Forecast
Issued by NWS Lake Charles, LA

Home | Current Version | Previous Version | Text Only | Print | Product List | Glossary On
Versions: 1 2 3 4 5 6 7 8 9 10 11 12 13 14 15
093
FTUS44 KLCH 211741
TAFARA
TAF
KARA 211741Z 2118/2218 16020G28KT P6SM VCSH SCT025 BKN060
      TEMPO 2118/2121 BKN025
     FM220100 16010KT P6SM BKN060
     FM220300 15008KT 6SM BR BKN015
     FM220600 15007KT 4SM BR BKN007=

USA.gov is the U.S. government's official web portal to all federal, state and local government web resources and services.